createdAt,value
2022-09-06T00:01:15.075Z,52.1
2022-09-06T00:02:58.776Z,52.1
2022-09-06T00:04:42.481Z,52.1
2022-09-06T00:06:26.179Z,52.2
2022-09-06T00:08:09.889Z,52.2
2022-09-06T00:09:53.579Z,52.2
2022-09-06T00:11:37.295Z,52.2
2022-09-06T00:13:20.984Z,52.2
2022-09-06T00:15:04.706Z,52.2
2022-09-06T00:16:48.382Z,52.2
2022-09-06T00:18:32.090Z,52.3
2022-09-06T00:20:15.785Z,52.3
2022-09-06T00:21:59.486Z,52.3
2022-09-06T00:23:43.196Z,52.2
2022-09-06T00:25:26.902Z,52.3
2022-09-06T00:27:10.605Z,52.3
2022-09-06T00:28:54.301Z,52.3
2022-09-06T00:30:38.004Z,52.3
2022-09-06T00:32:21.709Z,52.3
2022-09-06T00:34:05.403Z,52.3
2022-09-06T00:35:49.113Z,52.3
2022-09-06T00:37:32.816Z,52.3
2022-09-06T00:39:16.504Z,52.3
2022-09-06T00:41:00.216Z,52.3
2022-09-06T00:44:27.617Z,52.4
2022-09-06T00:46:11.318Z,52.5
2022-09-06T00:47:55.022Z,52.5
2022-09-06T00:49:38.732Z,52.5
2022-09-06T00:51:22.435Z,52.6
2022-09-06T00:53:06.134Z,52.7
2022-09-06T00:54:49.831Z,52.6
2022-09-06T00:56:33.534Z,52.6
2022-09-06T00:58:17.242Z,52.6
2022-09-06T01:00:00.939Z,52.7
2022-09-06T01:01:44.643Z,52.7
2022-09-06T01:03:28.346Z,52.7
2022-09-06T01:05:12.052Z,52.6
2022-09-06T01:06:55.753Z,52.6
2022-09-06T01:08:39.455Z,52.6
2022-09-06T01:10:23.177Z,52.6
2022-09-06T01:12:06.863Z,52.6
2022-09-06T01:13:50.561Z,52.6
2022-09-06T01:15:34.260Z,52.6
2022-09-06T01:17:17.968Z,52.6
2022-09-06T01:19:01.663Z,52.6
2022-09-06T01:20:45.367Z,52.6
2022-09-06T01:22:29.069Z,52.6
2022-09-06T01:24:12.767Z,52.5
2022-09-06T01:25:56.470Z,52.5
2022-09-06T01:27:40.181Z,52.5
2022-09-06T01:29:23.869Z,52.5
2022-09-06T01:31:07.573Z,52.4
2022-09-06T01:32:51.303Z,52.4
2022-09-06T01:34:34.978Z,52.4
2022-09-06T01:36:18.684Z,52.4
2022-09-06T01:38:02.387Z,52.4
2022-09-06T01:39:46.089Z,52.4
2022-09-06T01:41:29.798Z,52.4
2022-09-06T01:43:13.486Z,52.4
2022-09-06T01:44:57.193Z,52.4
2022-09-06T01:46:40.899Z,52.4
2022-09-06T01:48:24.596Z,52.5
2022-09-06T01:50:08.297Z,52.5
2022-09-06T01:51:52.004Z,52.4
2022-09-06T01:53:35.698Z,52.4
2022-09-06T01:55:19.401Z,52.4
2022-09-06T01:57:03.106Z,52.5
2022-09-06T01:58:46.802Z,52.4
2022-09-06T02:00:30.516Z,52.4
2022-09-06T02:02:14.209Z,52.4
2022-09-06T02:03:57.905Z,52.4
2022-09-06T02:05:41.611Z,52.4
2022-09-06T02:07:25.325Z,52.4
2022-09-06T02:09:09.021Z,52.4
2022-09-06T02:10:52.723Z,52.4
2022-09-06T02:12:36.434Z,52.4
2022-09-06T02:14:20.128Z,52.4
2022-09-06T02:16:03.835Z,52.4
2022-09-06T02:17:47.523Z,52.5
2022-09-06T02:19:31.230Z,52.4
2022-09-06T02:21:14.931Z,52.4
2022-09-06T02:22:58.627Z,52.4
2022-09-06T02:24:42.329Z,52.4
2022-09-06T02:26:26.035Z,52.4
2022-09-06T02:28:09.724Z,52.4
2022-09-06T02:29:53.426Z,52.4
2022-09-06T02:31:37.147Z,52.4
2022-09-06T02:33:20.833Z,52.4
2022-09-06T02:35:04.542Z,52.4
2022-09-06T02:36:48.232Z,52.4
2022-09-06T02:38:31.935Z,52.4
2022-09-06T02:40:15.645Z,52.4
2022-09-06T02:41:59.337Z,52.4
2022-09-06T02:43:43.045Z,52.4
2022-09-06T02:45:26.751Z,52.4
2022-09-06T02:47:10.442Z,52.4
2022-09-06T02:48:54.147Z,52.4
2022-09-06T02:50:37.854Z,52.4
2022-09-06T02:52:21.552Z,52.4
2022-09-06T02:54:05.249Z,52.4
2022-09-06T02:55:48.959Z,52.4
2022-09-06T02:57:32.645Z,52.4
2022-09-06T02:59:16.352Z,52.4
2022-09-06T03:01:00.059Z,52.4
2022-09-06T03:02:43.759Z,52.4
2022-09-06T03:04:27.466Z,52.4
2022-09-06T03:06:11.161Z,52.4
2022-09-06T03:07:54.871Z,52.5
2022-09-06T03:09:38.581Z,52.5
2022-09-06T03:11:22.267Z,52.5
2022-09-06T03:13:05.971Z,52.5
2022-09-06T03:14:49.679Z,52.6
2022-09-06T03:16:33.367Z,52.6
2022-09-06T03:18:17.078Z,52.6
2022-09-06T03:20:00.798Z,52.5
2022-09-06T03:21:44.475Z,52.5
2022-09-06T03:23:28.180Z,52.5
2022-09-06T03:25:11.889Z,52.6
2022-09-06T03:26:55.584Z,52.6
2022-09-06T03:28:39.296Z,52.5
2022-09-06T03:30:22.989Z,52.6
2022-09-06T03:32:06.708Z,52.6
2022-09-06T03:33:50.401Z,52.8
2022-09-06T03:35:34.088Z,52.9
2022-09-06T03:37:17.799Z,52.9
2022-09-06T03:39:01.497Z,53
2022-09-06T03:40:45.202Z,53
2022-09-06T03:44:12.615Z,53.1
2022-09-06T03:45:56.303Z,53
2022-09-06T03:47:40.011Z,53
2022-09-06T03:49:23.712Z,53.1
2022-09-06T03:51:07.418Z,53.2
2022-09-06T03:52:51.118Z,53.1
2022-09-06T03:54:34.821Z,53.1
2022-09-06T03:56:18.526Z,53.2
2022-09-06T03:58:02.231Z,53.2
2022-09-06T03:59:45.919Z,53.1
2022-09-06T04:01:29.631Z,53.2
2022-09-06T04:03:13.330Z,53.3
2022-09-06T04:04:57.025Z,53.2
2022-09-06T04:06:40.724Z,53.2
2022-09-06T04:08:24.435Z,53.3
2022-09-06T04:10:08.128Z,53.4
2022-09-06T04:11:51.833Z,53.3
2022-09-06T04:13:35.537Z,53.2
2022-09-06T04:15:19.244Z,53.1
2022-09-06T04:17:02.942Z,53.2
2022-09-06T04:18:46.664Z,53.2
2022-09-06T04:20:30.341Z,53.2
2022-09-06T04:22:14.051Z,53.2
2022-09-06T04:23:57.745Z,53.3
2022-09-06T04:25:41.449Z,53.3
2022-09-06T04:27:25.150Z,53.3
2022-09-06T04:29:08.850Z,53.3
2022-09-06T04:30:52.550Z,53.4
2022-09-06T04:32:36.256Z,53.5
2022-09-06T04:34:19.947Z,53.5
2022-09-06T04:36:03.655Z,53.5
2022-09-06T04:37:47.357Z,53.5
2022-09-06T04:39:31.062Z,53.4
2022-09-06T04:41:14.765Z,53.4
2022-09-06T04:42:58.471Z,53.6
2022-09-06T04:44:42.165Z,53.5
2022-09-06T04:46:25.878Z,53.4
2022-09-06T04:48:09.575Z,53.3
2022-09-06T04:49:53.277Z,53.3
2022-09-06T04:51:36.982Z,53.5
2022-09-06T04:53:20.679Z,53.4
2022-09-06T04:55:04.381Z,53.3
2022-09-06T04:56:48.078Z,53.3
2022-09-06T04:58:31.787Z,53.3
2022-09-06T05:00:15.482Z,53.3
2022-09-06T05:01:59.199Z,53.3
2022-09-06T05:03:42.887Z,53.3
2022-09-06T05:05:26.594Z,53.4
2022-09-06T05:07:10.295Z,53.6
2022-09-06T05:08:54.010Z,53.5
2022-09-06T05:10:37.707Z,53.5
2022-09-06T05:12:21.390Z,53.5
2022-09-06T05:14:05.102Z,53.5
2022-09-06T05:15:48.803Z,53.6
2022-09-06T05:17:32.503Z,53.6
2022-09-06T05:19:16.210Z,53.6
2022-09-06T05:22:43.602Z,53.7
2022-09-06T05:24:27.309Z,53.6
2022-09-06T05:26:11.009Z,53.6
2022-09-06T05:27:54.715Z,53.6
2022-09-06T05:29:38.427Z,53.6
2022-09-06T05:31:22.115Z,53.6
2022-09-06T05:33:05.816Z,53.6
2022-09-06T05:34:49.517Z,53.7
2022-09-06T05:36:33.212Z,53.7
2022-09-06T05:38:16.924Z,53.7
2022-09-06T05:40:00.628Z,53.8
2022-09-06T05:41:44.318Z,53.7
2022-09-06T05:43:28.024Z,53.8
2022-09-06T05:45:11.724Z,53.8
2022-09-06T05:46:55.427Z,53.9
2022-09-06T05:48:39.145Z,53.9
2022-09-06T05:50:22.831Z,53.8
2022-09-06T05:52:06.551Z,53.9
2022-09-06T05:53:50.234Z,53.8
2022-09-06T05:55:33.935Z,53.8
2022-09-06T05:57:17.635Z,53.9
2022-09-06T05:59:01.337Z,54
2022-09-06T06:00:45.038Z,54
2022-09-06T06:02:28.750Z,54.2
2022-09-06T06:04:12.441Z,54.2
2022-09-06T06:05:56.145Z,54.3
2022-09-06T06:07:39.849Z,54.4
2022-09-06T06:09:23.548Z,54.3
2022-09-06T06:11:07.261Z,54.3
2022-09-06T06:12:50.953Z,54.4
2022-09-06T06:14:34.648Z,54.4
2022-09-06T06:16:18.355Z,54.5
2022-09-06T06:18:02.062Z,54.6
2022-09-06T06:19:45.763Z,54.4
2022-09-06T06:21:29.457Z,54.4
2022-09-06T06:23:13.162Z,54.5
2022-09-06T06:24:56.856Z,54.3
2022-09-06T06:26:40.570Z,54.3
2022-09-06T06:28:24.259Z,54.2
2022-09-06T06:30:07.994Z,54.2
2022-09-06T06:31:51.667Z,54.3
2022-09-06T06:33:35.370Z,54.2
2022-09-06T06:35:19.083Z,54.3
2022-09-06T06:37:02.768Z,54.4
2022-09-06T06:38:46.483Z,54.5
2022-09-06T06:40:30.182Z,54.6
2022-09-06T06:42:13.873Z,54.8
2022-09-06T06:43:57.577Z,54.5
2022-09-06T06:45:41.284Z,54.6
2022-09-06T06:47:24.989Z,54.5
2022-09-06T06:49:08.691Z,54.4
2022-09-06T06:50:52.395Z,54.4
2022-09-06T06:52:36.099Z,54.3
2022-09-06T06:54:19.800Z,54.3
2022-09-06T06:56:03.496Z,54.3
2022-09-06T06:57:47.206Z,54.3
2022-09-06T06:59:30.913Z,54.3
2022-09-06T07:01:14.604Z,54.7
2022-09-06T07:02:58.303Z,55.4
2022-09-06T07:04:42.008Z,55.7
2022-09-06T07:06:25.707Z,56.1
2022-09-06T07:08:09.413Z,56.5
2022-09-06T07:09:53.128Z,56.6
2022-09-06T07:11:36.812Z,56.3
2022-09-06T07:13:20.509Z,56.1
2022-09-06T07:15:04.217Z,56
2022-09-06T07:16:47.916Z,55.7
2022-09-06T07:18:31.626Z,55.7
2022-09-06T07:20:15.316Z,55.7
2022-09-06T07:21:59.018Z,55.7
2022-09-06T07:23:42.728Z,55.8
2022-09-06T07:25:26.427Z,55.9
2022-09-06T07:27:10.138Z,55.8
2022-09-06T07:28:53.831Z,55.8
2022-09-06T07:30:37.528Z,55.8
2022-09-06T07:32:21.239Z,55.8
2022-09-06T07:34:04.932Z,55.7
2022-09-06T07:35:48.638Z,55.7
2022-09-06T07:37:32.337Z,55.7
2022-09-06T07:39:16.036Z,55.6
2022-09-06T07:40:59.740Z,55.6
2022-09-06T07:42:43.446Z,55.6
2022-09-06T07:44:27.137Z,55.6
2022-09-06T07:46:10.845Z,55.5
2022-09-06T07:47:54.549Z,55.4
2022-09-06T07:49:38.244Z,55.4
2022-09-06T07:51:21.943Z,55.3
2022-09-06T07:53:05.650Z,55.2
2022-09-06T07:54:49.339Z,55.1
2022-09-06T07:56:33.048Z,55
2022-09-06T08:00:00.451Z,54.8
2022-09-06T08:01:44.160Z,54.7
2022-09-06T08:03:27.849Z,54.6
2022-09-06T08:05:11.555Z,54.5
2022-09-06T08:06:55.263Z,54.5
2022-09-06T08:08:39.011Z,54.4
2022-09-06T08:10:22.655Z,54.3
2022-09-06T08:12:06.368Z,54.3
2022-09-06T08:13:50.065Z,54.2
2022-09-06T08:15:33.763Z,54.1
2022-09-06T08:17:17.478Z,54.1
2022-09-06T08:19:01.165Z,54.4
2022-09-06T08:20:44.870Z,54.4
2022-09-06T08:22:28.579Z,54.6
2022-09-06T08:24:12.290Z,54.4
2022-09-06T08:25:56.011Z,54.2
2022-09-06T08:27:39.673Z,54.1
2022-09-06T08:29:23.380Z,54.2
2022-09-06T08:31:07.083Z,54.2
2022-09-06T08:32:50.783Z,54
2022-09-06T08:34:34.479Z,53.9
2022-09-06T08:36:18.182Z,53.8
2022-09-06T08:38:01.915Z,53.8
2022-09-06T08:39:45.589Z,53.8
2022-09-06T08:41:29.296Z,53.7
2022-09-06T08:43:12.990Z,53.7
2022-09-06T08:44:56.696Z,53.8
2022-09-06T08:46:40.396Z,53.8
2022-09-06T08:48:24.098Z,53.8
2022-09-06T08:50:07.809Z,53.8
2022-09-06T08:51:51.496Z,53.7
2022-09-06T08:53:35.199Z,53.7
2022-09-06T08:55:18.909Z,53.7
2022-09-06T08:57:02.613Z,53.8
2022-09-06T08:58:46.303Z,53.8
2022-09-06T09:00:30.012Z,53.7
2022-09-06T09:02:13.705Z,53.7
2022-09-06T09:03:57.409Z,53.7
2022-09-06T09:05:41.115Z,53.7
2022-09-06T09:07:24.807Z,53.7
2022-09-06T09:09:08.513Z,53.7
2022-09-06T09:10:52.213Z,53.8
2022-09-06T09:12:35.915Z,53.8
2022-09-06T09:14:19.622Z,53.8
2022-09-06T09:16:03.328Z,53.9
2022-09-06T09:17:47.032Z,53.9
2022-09-06T09:19:30.728Z,53.9
2022-09-06T09:21:14.440Z,53.9
2022-09-06T09:22:58.134Z,53.9
2022-09-06T09:24:41.834Z,53.9
2022-09-06T09:26:25.524Z,53.9
2022-09-06T09:28:09.229Z,53.9
2022-09-06T09:29:52.941Z,53.9
2022-09-06T09:31:36.634Z,53.9
2022-09-06T09:33:20.338Z,53.9
2022-09-06T09:35:04.040Z,54
2022-09-06T09:36:47.733Z,54
2022-09-06T09:38:31.498Z,54
2022-09-06T09:40:15.143Z,54
2022-09-06T09:41:58.841Z,54
2022-09-06T09:43:42.550Z,53.9
2022-09-06T09:45:26.243Z,53.9
2022-09-06T09:47:09.946Z,53.9
2022-09-06T09:48:53.656Z,53.9
2022-09-06T09:50:37.399Z,54
2022-09-06T09:52:21.058Z,54.1
2022-09-06T09:54:04.760Z,54.1
2022-09-06T09:55:48.460Z,54.2
2022-09-06T09:57:32.155Z,54.3
2022-09-06T09:59:15.859Z,54.3
2022-09-06T10:00:59.557Z,54.4
2022-09-06T10:02:43.264Z,54.4
2022-09-06T10:04:26.963Z,54.4
2022-09-06T10:06:10.657Z,54.3
2022-09-06T10:07:54.393Z,54.2
2022-09-06T10:09:38.067Z,54.2
2022-09-06T10:11:21.766Z,54.1
2022-09-06T10:13:05.475Z,54.1
2022-09-06T10:14:49.182Z,54
2022-09-06T10:16:32.884Z,54
2022-09-06T10:18:16.579Z,54
2022-09-06T10:20:00.281Z,54
2022-09-06T10:21:43.994Z,54
2022-09-06T10:23:27.686Z,54
2022-09-06T10:25:11.388Z,53.9
2022-09-06T10:26:55.081Z,53.8
2022-09-06T10:28:38.791Z,53.7
2022-09-06T10:30:22.488Z,53.6
2022-09-06T10:32:06.181Z,53.6
2022-09-06T10:33:49.915Z,53.6
2022-09-06T10:35:33.623Z,53.6
2022-09-06T10:37:17.304Z,53.7
2022-09-06T10:39:01.004Z,53.7
2022-09-06T10:40:44.708Z,53.8
2022-09-06T10:42:28.418Z,53.8
2022-09-06T10:44:12.103Z,53.8
2022-09-06T10:45:55.844Z,53.8
2022-09-06T10:47:39.516Z,53.8
2022-09-06T10:49:23.216Z,53.9
2022-09-06T10:51:06.916Z,53.9
2022-09-06T10:52:50.619Z,53.9
2022-09-06T10:54:34.321Z,53.9
2022-09-06T10:56:18.035Z,54
2022-09-06T10:58:01.724Z,54.1
2022-09-06T10:59:45.428Z,54.2
2022-09-06T11:01:29.134Z,54.2
2022-09-06T11:03:12.835Z,54.2
2022-09-06T11:04:56.532Z,54.3
2022-09-06T11:06:40.251Z,54.2
2022-09-06T11:08:23.932Z,54.3
2022-09-06T11:10:07.632Z,54.3
2022-09-06T11:11:51.345Z,54.4
2022-09-06T11:13:35.045Z,54.4
2022-09-06T11:15:18.745Z,54.4
2022-09-06T11:17:02.446Z,54.5
2022-09-06T11:18:46.149Z,54.5
2022-09-06T11:20:29.854Z,54.5
2022-09-06T11:22:13.558Z,54.5
2022-09-06T11:23:57.263Z,54.5
2022-09-06T11:25:40.969Z,54.6
2022-09-06T11:27:24.658Z,54.6
2022-09-06T11:29:08.366Z,54.6
2022-09-06T11:30:52.067Z,54.6
2022-09-06T11:32:35.761Z,54.6
2022-09-06T11:34:19.469Z,54.6
2022-09-06T11:36:03.187Z,54.6
2022-09-06T11:37:46.863Z,54.6
2022-09-06T11:39:30.570Z,54.6
2022-09-06T11:41:14.276Z,54.6
2022-09-06T11:42:57.977Z,54.6
2022-09-06T11:44:41.684Z,54.6
2022-09-06T11:46:25.378Z,54.6
2022-09-06T11:48:09.086Z,54.6
2022-09-06T11:49:52.790Z,54.6
2022-09-06T11:51:36.491Z,54.6
2022-09-06T11:53:20.193Z,54.6
2022-09-06T11:55:03.891Z,54.6
2022-09-06T11:56:47.604Z,54.6
2022-09-06T11:58:31.294Z,54.6
2022-09-06T12:00:15.006Z,54.6
2022-09-06T12:01:58.699Z,54.5
2022-09-06T12:03:42.410Z,54.5
2022-09-06T12:05:26.104Z,54.5
2022-09-06T12:07:09.850Z,54.5
2022-09-06T12:08:53.519Z,54.4
2022-09-06T12:10:37.222Z,54.4
2022-09-06T12:12:20.937Z,54.4
2022-09-06T12:14:04.624Z,54.4
2022-09-06T12:15:48.326Z,54.4
2022-09-06T12:17:32.025Z,54.3
2022-09-06T12:19:15.735Z,54.3
2022-09-06T12:20:59.431Z,54.3
2022-09-06T12:22:43.138Z,54.3
2022-09-06T12:24:26.848Z,54.2
2022-09-06T12:26:10.563Z,54.2
2022-09-06T12:27:54.248Z,54.2
2022-09-06T12:29:37.948Z,54.1
2022-09-06T12:31:21.647Z,54
2022-09-06T12:33:05.346Z,53.9
2022-09-06T12:34:49.086Z,53.8
2022-09-06T12:36:32.753Z,53.8
2022-09-06T12:38:16.477Z,53.8
2022-09-06T12:40:00.173Z,53.8
2022-09-06T12:41:43.868Z,53.8
2022-09-06T12:43:27.575Z,53.8
2022-09-06T12:45:11.261Z,53.8
2022-09-06T12:46:54.970Z,53.8
2022-09-06T12:50:22.370Z,53.7
2022-09-06T12:52:06.077Z,53.7
2022-09-06T12:53:49.784Z,53.8
2022-09-06T12:55:33.473Z,53.8
2022-09-06T12:57:17.241Z,53.8
2022-09-06T12:59:00.883Z,53.8
2022-09-06T13:00:44.582Z,53.8
2022-09-06T13:02:28.295Z,53.9
2022-09-06T13:04:11.997Z,53.9
2022-09-06T13:05:55.701Z,53.9
2022-09-06T13:07:39.405Z,53.9
2022-09-06T13:09:23.100Z,53.9
2022-09-06T13:11:06.803Z,53.9
2022-09-06T13:12:50.512Z,54
2022-09-06T13:14:34.200Z,54
2022-09-06T13:16:17.908Z,54
2022-09-06T13:18:01.607Z,54.1
2022-09-06T13:19:45.325Z,54.1
2022-09-06T13:21:29.035Z,54.2
2022-09-06T13:23:12.717Z,54.2
2022-09-06T13:24:56.410Z,54.3
2022-09-06T13:26:40.119Z,54.3
2022-09-06T13:28:23.828Z,54.4
2022-09-06T13:30:07.528Z,54.4
2022-09-06T13:31:51.223Z,54.5
2022-09-06T13:33:34.926Z,54.5
2022-09-06T13:35:18.629Z,54.5
2022-09-06T13:37:02.338Z,54.7
2022-09-06T13:38:46.037Z,55
2022-09-06T13:40:29.738Z,55.2
2022-09-06T13:42:13.441Z,55.4
2022-09-06T13:43:57.137Z,55.7
2022-09-06T13:45:40.850Z,55.8
2022-09-06T13:47:24.549Z,55.7
2022-09-06T13:49:08.242Z,55.8
2022-09-06T13:50:51.950Z,55.9
2022-09-06T13:52:35.664Z,56.5
2022-09-06T13:54:19.357Z,56.5
2022-09-06T13:56:03.089Z,56.7
2022-09-06T13:57:46.754Z,56.8
2022-09-06T13:59:30.460Z,56.9
2022-09-06T14:01:14.167Z,57
2022-09-06T14:02:57.864Z,57.2
2022-09-06T14:04:41.568Z,57.3
2022-09-06T14:06:25.269Z,57.3
2022-09-06T14:08:08.973Z,57.3
2022-09-06T14:09:52.673Z,57.4
2022-09-06T14:11:36.380Z,57.4
2022-09-06T14:13:20.066Z,57.4
2022-09-06T14:15:03.778Z,57.4
2022-09-06T14:16:47.477Z,57.4
2022-09-06T14:18:31.179Z,57.7
2022-09-06T14:20:14.892Z,57.7
2022-09-06T14:21:58.593Z,57.6
2022-09-06T14:23:42.291Z,57.6
2022-09-06T14:25:25.994Z,57.7
2022-09-06T14:27:09.690Z,57.6
2022-09-06T14:28:53.394Z,57.6
2022-09-06T14:30:37.101Z,57.5
2022-09-06T14:32:20.789Z,57.5
2022-09-06T14:34:04.499Z,57.4
2022-09-06T14:35:48.200Z,57.4
2022-09-06T14:37:31.901Z,57.3
2022-09-06T14:39:15.601Z,57.3
2022-09-06T14:40:59.322Z,57.3
2022-09-06T14:42:43.017Z,57.1
2022-09-06T14:44:26.715Z,57.2
2022-09-06T14:46:10.412Z,57.3
2022-09-06T14:47:54.139Z,57.4
2022-09-06T14:49:37.852Z,57.4
2022-09-06T14:51:21.529Z,57.2
2022-09-06T14:53:05.234Z,57.1
2022-09-06T14:54:48.938Z,57.1
2022-09-06T14:56:32.637Z,57.1
2022-09-06T14:58:16.340Z,57.2
2022-09-06T15:00:00.061Z,57.2
2022-09-06T15:01:43.742Z,57.1
2022-09-06T15:03:27.442Z,57
2022-09-06T15:05:11.150Z,56.9
2022-09-06T15:06:54.845Z,57
2022-09-06T15:08:38.572Z,57
2022-09-06T15:10:22.255Z,57
2022-09-06T15:12:05.945Z,57
2022-09-06T15:13:49.664Z,57
2022-09-06T15:15:33.352Z,57.1
2022-09-06T15:17:17.060Z,57
2022-09-06T15:19:00.767Z,57
2022-09-06T15:20:44.470Z,56.9
2022-09-06T15:22:28.178Z,56.9
2022-09-06T15:24:11.870Z,56.9
2022-09-06T15:25:55.566Z,57
2022-09-06T15:27:39.273Z,57
2022-09-06T15:29:22.976Z,57
2022-09-06T15:31:06.668Z,56.9
2022-09-06T15:32:50.380Z,56.9
2022-09-06T15:34:34.088Z,56.9
2022-09-06T15:36:17.778Z,56.8
2022-09-06T15:38:01.480Z,56.8
2022-09-06T15:39:45.186Z,56.8
2022-09-06T15:41:28.887Z,56.8
2022-09-06T15:43:12.598Z,56.7
2022-09-06T15:44:56.288Z,56.7
2022-09-06T15:46:39.996Z,56.7
2022-09-06T15:48:23.697Z,56.6
2022-09-06T15:50:07.411Z,56.6
2022-09-06T15:51:51.101Z,56.6
2022-09-06T15:53:34.802Z,56.5
2022-09-06T15:55:18.498Z,56.5
2022-09-06T15:58:45.908Z,56.4
2022-09-06T16:00:29.609Z,56.4
2022-09-06T16:02:13.320Z,56.3
2022-09-06T16:03:57.014Z,56.3
2022-09-06T16:05:40.723Z,56.3
2022-09-06T16:07:24.422Z,56.3
2022-09-06T16:09:08.118Z,56.3
2022-09-06T16:10:51.817Z,56.3
2022-09-06T16:12:35.526Z,56.3
2022-09-06T16:14:19.222Z,56.3
2022-09-06T16:16:02.922Z,56.2
2022-09-06T16:17:46.632Z,56.2
2022-09-06T16:19:30.326Z,56.2
2022-09-06T16:21:14.031Z,56.2
2022-09-06T16:22:57.735Z,56.2
2022-09-06T16:24:41.454Z,56.1
2022-09-06T16:26:25.139Z,56.1
2022-09-06T16:28:08.841Z,56.1
2022-09-06T16:29:52.563Z,56.2
2022-09-06T16:31:36.249Z,56.2
2022-09-06T16:33:19.946Z,56.1
2022-09-06T16:35:03.651Z,56.2
2022-09-06T16:36:47.362Z,56.1
2022-09-06T16:38:31.057Z,56
2022-09-06T16:40:14.764Z,55.9
2022-09-06T16:41:58.479Z,55.8
2022-09-06T16:43:42.158Z,55.7
2022-09-06T16:45:25.868Z,55.6
2022-09-06T16:47:09.563Z,55.5
2022-09-06T16:48:53.266Z,55.4
2022-09-06T16:50:36.978Z,55.4
2022-09-06T16:52:20.671Z,55.3
2022-09-06T16:54:04.373Z,55.3
2022-09-06T16:55:48.078Z,55.2
2022-09-06T16:57:31.781Z,55.1
2022-09-06T16:59:15.479Z,55
2022-09-06T17:00:59.190Z,54.9
2022-09-06T17:02:42.880Z,54.8
2022-09-06T17:04:26.589Z,54.8
2022-09-06T17:06:10.309Z,54.8
2022-09-06T17:07:53.982Z,54.8
2022-09-06T17:09:37.710Z,54.8
2022-09-06T17:11:21.396Z,54.7
2022-09-06T17:13:05.088Z,54.8
2022-09-06T17:14:48.827Z,54.8
2022-09-06T17:16:32.503Z,54.8
2022-09-06T17:18:16.224Z,54.8
2022-09-06T17:19:59.908Z,54.8
2022-09-06T17:21:43.606Z,54.9
2022-09-06T17:23:27.314Z,54.9
2022-09-06T17:25:11.015Z,55
2022-09-06T17:26:54.712Z,55
2022-09-06T17:28:38.419Z,55
2022-09-06T17:30:22.157Z,55
2022-09-06T17:32:05.826Z,55.1
2022-09-06T17:33:49.522Z,55.2
2022-09-06T17:35:33.250Z,55.2
2022-09-06T17:37:16.930Z,55.3
2022-09-06T17:39:00.628Z,55.3
2022-09-06T17:40:44.334Z,55.4
2022-09-06T17:42:28.036Z,55.4
2022-09-06T17:44:11.757Z,55.5
2022-09-06T17:45:55.442Z,55.5
2022-09-06T17:47:39.155Z,55.5
2022-09-06T17:49:22.876Z,55.5
2022-09-06T17:51:06.548Z,55.6
2022-09-06T17:52:50.247Z,55.6
2022-09-06T17:54:33.961Z,55.6
2022-09-06T17:56:17.652Z,55.7
2022-09-06T17:58:01.364Z,55.6
2022-09-06T17:59:45.060Z,55.6
2022-09-06T18:01:28.760Z,55.7
2022-09-06T18:03:12.466Z,55.6
2022-09-06T18:04:56.167Z,55.5
2022-09-06T18:06:39.873Z,55.5
2022-09-06T18:08:23.593Z,55.4
2022-09-06T18:10:07.273Z,55.3
2022-09-06T18:11:50.971Z,55.2
2022-09-06T18:13:34.687Z,55
2022-09-06T18:15:18.378Z,55
2022-09-06T18:17:02.080Z,54.9
2022-09-06T18:18:45.795Z,54.8
2022-09-06T18:20:29.483Z,54.6
2022-09-06T18:22:13.199Z,54.7
2022-09-06T18:23:56.891Z,54.5
2022-09-06T18:25:40.582Z,54.6
2022-09-06T18:29:07.996Z,54.5
2022-09-06T18:30:51.698Z,54.5
2022-09-06T18:32:35.408Z,54.6
2022-09-06T18:34:19.101Z,54.8
2022-09-06T18:36:02.803Z,55.1
2022-09-06T18:37:46.510Z,55.3
2022-09-06T18:39:30.199Z,55.5
2022-09-06T18:41:13.917Z,55.8
2022-09-06T18:42:57.615Z,55.9
2022-09-06T18:44:41.309Z,55.8
2022-09-06T18:46:25.009Z,55.6
2022-09-06T18:48:08.728Z,55.7
2022-09-06T18:49:52.415Z,56.1
2022-09-06T18:51:36.144Z,56.7
2022-09-06T18:53:19.878Z,56.9
2022-09-06T18:55:03.525Z,55.8
2022-09-06T18:56:47.246Z,55.3
2022-09-06T18:58:30.967Z,56.3
2022-09-06T19:00:14.695Z,57.8
2022-09-06T19:01:58.349Z,57.4
2022-09-06T19:03:42.068Z,56
2022-09-06T19:05:25.843Z,56.8
2022-09-06T19:07:09.500Z,55.7
2022-09-06T19:08:53.152Z,56.4
2022-09-06T19:10:36.842Z,57.3
2022-09-06T19:12:20.550Z,56.5
2022-09-06T19:14:04.245Z,55.4
2022-09-06T19:15:47.949Z,54.7
2022-09-06T19:17:31.667Z,55.9
2022-09-06T19:19:15.347Z,55.9
2022-09-06T19:20:59.080Z,55.2
2022-09-06T19:22:42.758Z,54.7
2022-09-06T19:24:26.450Z,54.2
2022-09-06T19:26:10.171Z,53.7
2022-09-06T19:27:53.866Z,53.6
2022-09-06T19:29:37.557Z,53.6
2022-09-06T19:31:21.271Z,53.5
2022-09-06T19:33:04.978Z,53.5
2022-09-06T19:34:48.674Z,53.6
2022-09-06T19:36:32.380Z,53.5
2022-09-06T19:38:16.072Z,53.5
2022-09-06T19:39:59.784Z,53.4
2022-09-06T19:41:43.483Z,53.4
2022-09-06T19:43:27.186Z,53.5
2022-09-06T19:45:10.890Z,53.4
2022-09-06T19:46:54.588Z,53.4
2022-09-06T19:48:38.282Z,53.3
2022-09-06T19:50:21.993Z,53.3
2022-09-06T19:52:05.695Z,53.3
2022-09-06T19:53:49.394Z,53.4
2022-09-06T19:55:33.106Z,53.7
2022-09-06T19:57:16.833Z,53.8
2022-09-06T19:59:00.504Z,53.8
2022-09-06T20:00:44.205Z,53.9
2022-09-06T20:02:27.902Z,53.9
2022-09-06T20:04:11.617Z,54
2022-09-06T20:05:55.315Z,54
2022-09-06T20:07:39.009Z,54.1
2022-09-06T20:09:22.715Z,54.1
2022-09-06T20:11:06.428Z,54.2
2022-09-06T20:12:50.122Z,54.3
2022-09-06T20:14:33.820Z,54.3
2022-09-06T20:16:17.521Z,54.4
2022-09-06T20:18:01.219Z,54.5
2022-09-06T20:21:28.636Z,54.5
2022-09-06T20:23:12.344Z,54.6
2022-09-06T20:24:56.064Z,54.5
2022-09-06T20:26:39.747Z,54.5
2022-09-06T20:28:23.467Z,54.6
2022-09-06T20:30:07.159Z,54.7
2022-09-06T20:31:50.847Z,54.8
2022-09-06T20:33:34.546Z,54.8
2022-09-06T20:35:18.253Z,54.9
2022-09-06T20:37:01.949Z,55
2022-09-06T20:38:45.651Z,55
2022-09-06T20:40:29.360Z,55
2022-09-06T20:42:13.052Z,55.1
2022-09-06T20:43:56.760Z,55.1
2022-09-06T20:45:40.460Z,55.2
2022-09-06T20:47:24.167Z,55.2
2022-09-06T20:49:07.868Z,55.2
2022-09-06T20:50:51.562Z,55.3
2022-09-06T20:52:35.276Z,55.4
2022-09-06T20:54:18.974Z,55.4
2022-09-06T20:56:02.678Z,55.4
2022-09-06T20:57:46.373Z,55.5
2022-09-06T20:59:30.081Z,55.5
2022-09-06T21:01:13.776Z,55.5
2022-09-06T21:02:57.482Z,55.5
2022-09-06T21:04:41.205Z,55.5
2022-09-06T21:06:24.886Z,55.5
2022-09-06T21:08:08.594Z,55.4
2022-09-06T21:09:52.294Z,55.6
2022-09-06T21:11:35.995Z,55.8
2022-09-06T21:13:19.696Z,55.7
2022-09-06T21:15:03.399Z,55.7
2022-09-06T21:16:47.100Z,55.6
2022-09-06T21:18:30.827Z,55.5
2022-09-06T21:20:14.503Z,55.5
2022-09-06T21:21:58.206Z,55.5
2022-09-06T21:23:41.913Z,55.4
2022-09-06T21:25:25.608Z,55.4
2022-09-06T21:27:09.336Z,55.4
2022-09-06T21:28:53.013Z,55.4
2022-09-06T21:30:36.720Z,55.5
2022-09-06T21:32:20.423Z,55.6
2022-09-06T21:34:04.125Z,55.6
2022-09-06T21:35:47.825Z,55.6
2022-09-06T21:37:31.528Z,55.7
2022-09-06T21:39:15.225Z,55.7
2022-09-06T21:40:58.931Z,55.7
2022-09-06T21:42:42.638Z,55.7
2022-09-06T21:44:26.337Z,55.7
2022-09-06T21:46:10.043Z,55.8
2022-09-06T21:47:53.748Z,55.8
2022-09-06T21:49:37.438Z,55.8
2022-09-06T21:51:21.147Z,55.8
2022-09-06T21:53:04.857Z,55.7
2022-09-06T21:54:48.546Z,55.6
2022-09-06T21:56:32.250Z,55.6
2022-09-06T21:58:15.961Z,55.6
2022-09-06T21:59:59.654Z,55.6
2022-09-06T22:01:43.356Z,55.5
2022-09-06T22:03:27.071Z,55.5
2022-09-06T22:05:10.766Z,55.5
2022-09-06T22:06:54.469Z,55.6
2022-09-06T22:08:38.166Z,55.5
2022-09-06T22:10:21.904Z,55.5
2022-09-06T22:12:05.577Z,55.5
2022-09-06T22:13:49.276Z,55.5
2022-09-06T22:15:32.976Z,55.5
2022-09-06T22:17:16.690Z,55.5
2022-09-06T22:19:00.375Z,55.6
2022-09-06T22:20:44.091Z,55.6
2022-09-06T22:22:27.785Z,55.5
2022-09-06T22:24:11.478Z,55.5
2022-09-06T22:25:55.180Z,55.5
2022-09-06T22:27:38.897Z,55.5
2022-09-06T22:29:22.588Z,55.5
2022-09-06T22:31:06.291Z,55.5
2022-09-06T22:32:49.991Z,55.5
2022-09-06T22:34:33.700Z,55.5
2022-09-06T22:36:17.402Z,55.4
2022-09-06T22:38:01.094Z,55.4
2022-09-06T22:39:44.803Z,55.4
2022-09-06T22:41:28.508Z,55.5
2022-09-06T22:43:12.198Z,55.4
2022-09-06T22:44:55.904Z,55.4
2022-09-06T22:46:39.605Z,55.4
2022-09-06T22:48:23.330Z,55.3
2022-09-06T22:50:07.015Z,55.3
2022-09-06T22:51:50.715Z,55.3
2022-09-06T22:53:34.399Z,55.2
2022-09-06T22:55:18.108Z,55.2
2022-09-06T22:57:01.813Z,55.1
2022-09-06T22:58:45.527Z,55.2
2022-09-06T23:00:29.219Z,55.1
2022-09-06T23:02:12.914Z,55.1
2022-09-06T23:03:56.615Z,55.1
2022-09-06T23:05:40.320Z,55.1
2022-09-06T23:07:24.016Z,55.1
2022-09-06T23:09:07.723Z,55.1
2022-09-06T23:10:51.424Z,55.2
2022-09-06T23:12:35.117Z,55.2
2022-09-06T23:14:18.820Z,55.3
2022-09-06T23:16:02.533Z,55.2
2022-09-06T23:17:46.219Z,55.3
2022-09-06T23:19:29.921Z,55.4
2022-09-06T23:21:13.629Z,55.4